sensor_id;sensor_type;location;lat;lon;timestamp;P1;durP1;ratioP1;P2;durP2;ratioP2
11797;SDS011;5956;51.428;6.682;2023-02-04T00:00:26;17.63;;;5.37;;
11797;SDS011;5956;51.428;6.682;2023-02-04T00:02:54;22.47;;;5.10;;
11797;SDS011;5956;51.428;6.682;2023-02-04T00:05:21;17.80;;;5.37;;
11797;SDS011;5956;51.428;6.682;2023-02-04T00:07:49;21.77;;;5.97;;
11797;SDS011;5956;51.428;6.682;2023-02-04T00:10:15;16.83;;;5.33;;
11797;SDS011;5956;51.428;6.682;2023-02-04T00:12:43;16.73;;;4.70;;
11797;SDS011;5956;51.428;6.682;2023-02-04T00:15:09;21.43;;;5.43;;
11797;SDS011;5956;51.428;6.682;2023-02-04T00:17:36;17.73;;;5.27;;
11797;SDS011;5956;51.428;6.682;2023-02-04T00:20:03;16.43;;;5.67;;
11797;SDS011;5956;51.428;6.682;2023-02-04T00:22:30;21.77;;;5.70;;
11797;SDS011;5956;51.428;6.682;2023-02-04T00:24:58;17.63;;;5.07;;
11797;SDS011;5956;51.428;6.682;2023-02-04T00:27:25;18.53;;;5.17;;
11797;SDS011;5956;51.428;6.682;2023-02-04T00:29:51;18.77;;;5.57;;
11797;SDS011;5956;51.428;6.682;2023-02-04T00:32:18;15.37;;;5.40;;
11797;SDS011;5956;51.428;6.682;2023-02-04T00:34:44;19.17;;;5.00;;
11797;SDS011;5956;51.428;6.682;2023-02-04T00:37:11;19.67;;;5.00;;
11797;SDS011;5956;51.428;6.682;2023-02-04T00:39:37;19.97;;;5.63;;
11797;SDS011;5956;51.428;6.682;2023-02-04T00:42:05;18.17;;;5.50;;
11797;SDS011;5956;51.428;6.682;2023-02-04T00:44:32;17.07;;;5.23;;
11797;SDS011;5956;51.428;6.682;2023-02-04T00:47:00;21.27;;;5.60;;
11797;SDS011;5956;51.428;6.682;2023-02-04T00:49:27;15.70;;;4.93;;
11797;SDS011;5956;51.428;6.682;2023-02-04T00:51:53;15.80;;;4.87;;
11797;SDS011;5956;51.428;6.682;2023-02-04T00:54:20;17.73;;;5.37;;
11797;SDS011;5956;51.428;6.682;2023-02-04T00:56:46;18.87;;;4.90;;
11797;SDS011;5956;51.428;6.682;2023-02-04T00:59:14;24.20;;;6.83;;
11797;SDS011;5956;51.428;6.682;2023-02-04T01:01:41;14.40;;;5.00;;
11797;SDS011;5956;51.428;6.682;2023-02-04T01:04:07;15.33;;;5.00;;
11797;SDS011;5956;51.428;6.682;2023-02-04T01:06:34;15.27;;;5.23;;
11797;SDS011;5956;51.428;6.682;2023-02-04T01:09:01;21.77;;;6.23;;
11797;SDS011;5956;51.428;6.682;2023-02-04T01:11:28;21.33;;;5.33;;
11797;SDS011;5956;51.428;6.682;2023-02-04T01:13:54;17.50;;;5.33;;
11797;SDS011;5956;51.428;6.682;2023-02-04T01:16:22;17.20;;;5.13;;
11797;SDS011;5956;51.428;6.682;2023-02-04T01:18:49;14.20;;;4.97;;
11797;SDS011;5956;51.428;6.682;2023-02-04T01:21:15;17.07;;;5.07;;
11797;SDS011;5956;51.428;6.682;2023-02-04T01:23:42;22.17;;;5.40;;
11797;SDS011;5956;51.428;6.682;2023-02-04T01:26:08;17.47;;;5.00;;
11797;SDS011;5956;51.428;6.682;2023-02-04T01:28:35;17.13;;;5.37;;
11797;SDS011;5956;51.428;6.682;2023-02-04T01:31:02;19.10;;;5.70;;
11797;SDS011;5956;51.428;6.682;2023-02-04T01:33:30;14.03;;;4.97;;
11797;SDS011;5956;51.428;6.682;2023-02-04T01:35:56;15.13;;;4.53;;
11797;SDS011;5956;51.428;6.682;2023-02-04T01:38:23;17.67;;;5.00;;
11797;SDS011;5956;51.428;6.682;2023-02-04T01:40:49;17.20;;;5.50;;
11797;SDS011;5956;51.428;6.682;2023-02-04T01:43:16;19.80;;;4.67;;
11797;SDS011;5956;51.428;6.682;2023-02-04T01:45:43;15.13;;;4.60;;
11797;SDS011;5956;51.428;6.682;2023-02-04T01:48:10;20.63;;;5.40;;
11797;SDS011;5956;51.428;6.682;2023-02-04T01:50:38;16.97;;;5.30;;
11797;SDS011;5956;51.428;6.682;2023-02-04T01:53:05;20.43;;;5.20;;
11797;SDS011;5956;51.428;6.682;2023-02-04T01:55:31;19.80;;;5.33;;
11797;SDS011;5956;51.428;6.682;2023-02-04T01:57:58;15.47;;;5.10;;
11797;SDS011;5956;51.428;6.682;2023-02-04T02:00:26;18.60;;;4.60;;
11797;SDS011;5956;51.428;6.682;2023-02-04T02:02:53;24.30;;;5.77;;
11797;SDS011;5956;51.428;6.682;2023-02-04T02:05:21;15.87;;;5.27;;
11797;SDS011;5956;51.428;6.682;2023-02-04T02:07:50;22.50;;;4.97;;
11797;SDS011;5956;51.428;6.682;2023-02-04T02:10:18;16.40;;;4.50;;
11797;SDS011;5956;51.428;6.682;2023-02-04T02:12:45;15.47;;;4.80;;
11797;SDS011;5956;51.428;6.682;2023-02-04T02:15:12;16.63;;;5.33;;
11797;SDS011;5956;51.428;6.682;2023-02-04T02:17:39;16.90;;;5.50;;
11797;SDS011;5956;51.428;6.682;2023-02-04T02:20:06;14.40;;;4.40;;
11797;SDS011;5956;51.428;6.682;2023-02-04T02:22:35;17.90;;;4.70;;
11797;SDS011;5956;51.428;6.682;2023-02-04T02:25:08;16.87;;;5.60;;
11797;SDS011;5956;51.428;6.682;2023-02-04T02:27:35;16.17;;;5.10;;
11797;SDS011;5956;51.428;6.682;2023-02-04T02:30:02;19.90;;;5.70;;
11797;SDS011;5956;51.428;6.682;2023-02-04T02:32:28;16.87;;;5.07;;
11797;SDS011;5956;51.428;6.682;2023-02-04T02:34:55;20.83;;;4.90;;
11797;SDS011;5956;51.428;6.682;2023-02-04T02:37:21;22.60;;;5.70;;
11797;SDS011;5956;51.428;6.682;2023-02-04T02:39:48;18.67;;;5.50;;
11797;SDS011;5956;51.428;6.682;2023-02-04T02:42:16;15.70;;;4.90;;
11797;SDS011;5956;51.428;6.682;2023-02-04T02:44:43;17.30;;;6.00;;
11797;SDS011;5956;51.428;6.682;2023-02-04T02:47:11;16.80;;;4.63;;
11797;SDS011;5956;51.428;6.682;2023-02-04T02:49:39;20.00;;;5.17;;
11797;SDS011;5956;51.428;6.682;2023-02-04T02:52:05;17.87;;;4.83;;
11797;SDS011;5956;51.428;6.682;2023-02-04T02:54:34;14.20;;;4.53;;
11797;SDS011;5956;51.428;6.682;2023-02-04T02:57:01;18.00;;;4.90;;
11797;SDS011;5956;51.428;6.682;2023-02-04T02:59:29;15.97;;;4.67;;
11797;SDS011;5956;51.428;6.682;2023-02-04T03:01:56;18.00;;;4.67;;
11797;SDS011;5956;51.428;6.682;2023-02-04T03:04:24;15.93;;;4.60;;
11797;SDS011;5956;51.428;6.682;2023-02-04T03:06:51;21.20;;;5.43;;
11797;SDS011;5956;51.428;6.682;2023-02-04T03:09:18;14.73;;;3.87;;
11797;SDS011;5956;51.428;6.682;2023-02-04T03:11:45;19.50;;;4.80;;
11797;SDS011;5956;51.428;6.682;2023-02-04T03:14:12;16.67;;;4.27;;
11797;SDS011;5956;51.428;6.682;2023-02-04T03:16:40;14.93;;;4.43;;
11797;SDS011;5956;51.428;6.682;2023-02-04T03:19:08;19.47;;;4.60;;
11797;SDS011;5956;51.428;6.682;2023-02-04T03:21:35;11.70;;;4.40;;
11797;SDS011;5956;51.428;6.682;2023-02-04T03:24:02;14.07;;;3.90;;
11797;SDS011;5956;51.428;6.682;2023-02-04T03:26:28;18.10;;;4.83;;
11797;SDS011;5956;51.428;6.682;2023-02-04T03:28:55;16.20;;;4.60;;
11797;SDS011;5956;51.428;6.682;2023-02-04T03:31:22;15.10;;;5.47;;
11797;SDS011;5956;51.428;6.682;2023-02-04T03:33:50;19.53;;;4.93;;
11797;SDS011;5956;51.428;6.682;2023-02-04T03:36:16;18.53;;;4.50;;
11797;SDS011;5956;51.428;6.682;2023-02-04T03:38:44;13.90;;;3.97;;
11797;SDS011;5956;51.428;6.682;2023-02-04T03:41:10;16.20;;;3.97;;
11797;SDS011;5956;51.428;6.682;2023-02-04T03:43:37;18.37;;;4.83;;
11797;SDS011;5956;51.428;6.682;2023-02-04T03:46:03;15.57;;;3.90;;
11797;SDS011;5956;51.428;6.682;2023-02-04T03:48:30;14.40;;;4.80;;
11797;SDS011;5956;51.428;6.682;2023-02-04T03:50:58;15.57;;;4.00;;
11797;SDS011;5956;51.428;6.682;2023-02-04T03:53:24;13.20;;;4.07;;
11797;SDS011;5956;51.428;6.682;2023-02-04T03:55:51;13.67;;;3.80;;
11797;SDS011;5956;51.428;6.682;2023-02-04T03:58:18;15.27;;;3.97;;
11797;SDS011;5956;51.428;6.682;2023-02-04T04:00:44;16.27;;;4.40;;
11797;SDS011;5956;51.428;6.682;2023-02-04T04:03:11;16.73;;;4.57;;
11797;SDS011;5956;51.428;6.682;2023-02-04T04:05:37;13.17;;;4.30;;
11797;SDS011;5956;51.428;6.682;2023-02-04T04:08:05;18.00;;;4.50;;
11797;SDS011;5956;51.428;6.682;2023-02-04T04:10:32;16.30;;;4.97;;
11797;SDS011;5956;51.428;6.682;2023-02-04T04:12:58;15.13;;;4.67;;
11797;SDS011;5956;51.428;6.682;2023-02-04T04:15:25;15.57;;;4.33;;
11797;SDS011;5956;51.428;6.682;2023-02-04T04:17:51;16.20;;;4.10;;
11797;SDS011;5956;51.428;6.682;2023-02-04T04:20:18;14.67;;;3.90;;
11797;SDS011;5956;51.428;6.682;2023-02-04T04:22:44;18.70;;;5.23;;
11797;SDS011;5956;51.428;6.682;2023-02-04T04:25:12;18.60;;;4.50;;
11797;SDS011;5956;51.428;6.682;2023-02-04T04:27:39;17.90;;;4.73;;
11797;SDS011;5956;51.428;6.682;2023-02-04T04:30:06;18.27;;;4.30;;
11797;SDS011;5956;51.428;6.682;2023-02-04T04:32:32;17.73;;;4.77;;
11797;SDS011;5956;51.428;6.682;2023-02-04T04:34:59;14.30;;;4.40;;
11797;SDS011;5956;51.428;6.682;2023-02-04T04:37:25;21.53;;;5.27;;
11797;SDS011;5956;51.428;6.682;2023-02-04T04:39:52;18.07;;;4.57;;
11797;SDS011;5956;51.428;6.682;2023-02-04T04:42:20;18.80;;;5.43;;
11797;SDS011;5956;51.428;6.682;2023-02-04T04:44:46;14.77;;;4.80;;
11797;SDS011;5956;51.428;6.682;2023-02-04T04:47:13;19.60;;;5.03;;
11797;SDS011;5956;51.428;6.682;2023-02-04T04:49:40;18.97;;;5.00;;
11797;SDS011;5956;51.428;6.682;2023-02-04T04:52:06;14.83;;;5.10;;
11797;SDS011;5956;51.428;6.682;2023-02-04T04:54:33;16.33;;;4.97;;
11797;SDS011;5956;51.428;6.682;2023-02-04T04:56:59;17.17;;;4.40;;
11797;SDS011;5956;51.428;6.682;2023-02-04T04:59:27;18.57;;;4.97;;
11797;SDS011;5956;51.428;6.682;2023-02-04T05:01:54;15.90;;;4.53;;
11797;SDS011;5956;51.428;6.682;2023-02-04T05:04:20;18.87;;;5.30;;
11797;SDS011;5956;51.428;6.682;2023-02-04T05:06:47;20.37;;;5.63;;
11797;SDS011;5956;51.428;6.682;2023-02-04T05:09:13;15.10;;;4.57;;
11797;SDS011;5956;51.428;6.682;2023-02-04T05:11:41;18.47;;;4.70;;
11797;SDS011;5956;51.428;6.682;2023-02-04T05:14:08;18.30;;;4.40;;
11797;SDS011;5956;51.428;6.682;2023-02-04T05:16:36;17.60;;;4.80;;
11797;SDS011;5956;51.428;6.682;2023-02-04T05:19:02;18.43;;;4.87;;
11797;SDS011;5956;51.428;6.682;2023-02-04T05:21:29;16.80;;;4.50;;
11797;SDS011;5956;51.428;6.682;2023-02-04T05:23:55;16.90;;;4.63;;
11797;SDS011;5956;51.428;6.682;2023-02-04T05:26:22;17.60;;;4.27;;
11797;SDS011;5956;51.428;6.682;2023-02-04T05:28:48;18.93;;;4.50;;
11797;SDS011;5956;51.428;6.682;2023-02-04T05:31:15;17.30;;;4.80;;
11797;SDS011;5956;51.428;6.682;2023-02-04T05:33:43;16.63;;;5.43;;
11797;SDS011;5956;51.428;6.682;2023-02-04T05:36:09;17.20;;;4.63;;
11797;SDS011;5956;51.428;6.682;2023-02-04T05:38:36;19.07;;;5.07;;
11797;SDS011;5956;51.428;6.682;2023-02-04T05:41:02;17.73;;;4.70;;
11797;SDS011;5956;51.428;6.682;2023-02-04T05:43:29;14.97;;;4.93;;
11797;SDS011;5956;51.428;6.682;2023-02-04T05:45:56;20.63;;;5.27;;
11797;SDS011;5956;51.428;6.682;2023-02-04T05:48:23;23.00;;;5.87;;
11797;SDS011;5956;51.428;6.682;2023-02-04T05:50:51;18.37;;;5.40;;
11797;SDS011;5956;51.428;6.682;2023-02-04T05:53:18;20.33;;;5.33;;
11797;SDS011;5956;51.428;6.682;2023-02-04T05:55:45;19.67;;;5.00;;
11797;SDS011;5956;51.428;6.682;2023-02-04T05:58:11;19.67;;;4.83;;
11797;SDS011;5956;51.428;6.682;2023-02-04T06:00:38;21.97;;;4.97;;
11797;SDS011;5956;51.428;6.682;2023-02-04T06:03:04;17.43;;;5.43;;
11797;SDS011;5956;51.428;6.682;2023-02-04T06:05:31;14.57;;;5.27;;
11797;SDS011;5956;51.428;6.682;2023-02-04T06:07:59;21.57;;;5.63;;
11797;SDS011;5956;51.428;6.682;2023-02-04T06:10:25;20.10;;;5.53;;
11797;SDS011;5956;51.428;6.682;2023-02-04T06:12:52;17.80;;;5.27;;
11797;SDS011;5956;51.428;6.682;2023-02-04T06:15:18;23.67;;;5.23;;
11797;SDS011;5956;51.428;6.682;2023-02-04T06:17:45;21.67;;;5.47;;
11797;SDS011;5956;51.428;6.682;2023-02-04T06:20:12;17.10;;;5.20;;
11797;SDS011;5956;51.428;6.682;2023-02-04T06:22:39;16.53;;;5.53;;
11797;SDS011;5956;51.428;6.682;2023-02-04T06:25:07;17.90;;;4.97;;
11797;SDS011;5956;51.428;6.682;2023-02-04T06:27:34;17.60;;;5.93;;
11797;SDS011;5956;51.428;6.682;2023-02-04T06:30:00;22.67;;;5.70;;
11797;SDS011;5956;51.428;6.682;2023-02-04T06:32:27;18.83;;;6.00;;
11797;SDS011;5956;51.428;6.682;2023-02-04T06:34:53;18.87;;;5.17;;
11797;SDS011;5956;51.428;6.682;2023-02-04T06:37:20;17.57;;;5.73;;
11797;SDS011;5956;51.428;6.682;2023-02-04T06:39:46;22.40;;;5.80;;
11797;SDS011;5956;51.428;6.682;2023-02-04T06:42:14;17.03;;;6.30;;
11797;SDS011;5956;51.428;6.682;2023-02-04T06:44:41;23.57;;;6.20;;
11797;SDS011;5956;51.428;6.682;2023-02-04T06:47:07;22.40;;;5.73;;
11797;SDS011;5956;51.428;6.682;2023-02-04T06:49:34;19.80;;;5.83;;
11797;SDS011;5956;51.428;6.682;2023-02-04T06:52:00;23.37;;;6.23;;
11797;SDS011;5956;51.428;6.682;2023-02-04T06:54:27;17.47;;;4.83;;
11797;SDS011;5956;51.428;6.682;2023-02-04T06:56:54;14.07;;;5.20;;
11797;SDS011;5956;51.428;6.682;2023-02-04T06:59:21;23.00;;;5.87;;
11797;SDS011;5956;51.428;6.682;2023-02-04T07:01:50;20.13;;;5.77;;
11797;SDS011;5956;51.428;6.682;2023-02-04T07:04:16;19.40;;;5.87;;
11797;SDS011;5956;51.428;6.682;2023-02-04T07:06:43;20.53;;;5.50;;
11797;SDS011;5956;51.428;6.682;2023-02-04T07:09:09;18.73;;;5.73;;
11797;SDS011;5956;51.428;6.682;2023-02-04T07:11:36;19.77;;;4.60;;
11797;SDS011;5956;51.428;6.682;2023-02-04T07:14:03;23.13;;;5.90;;
11797;SDS011;5956;51.428;6.682;2023-02-04T07:16:30;18.53;;;5.03;;
11797;SDS011;5956;51.428;6.682;2023-02-04T07:18:57;13.33;;;4.77;;
11797;SDS011;5956;51.428;6.682;2023-02-04T07:21:23;15.17;;;5.53;;
11797;SDS011;5956;51.428;6.682;2023-02-04T07:23:51;17.33;;;5.47;;
11797;SDS011;5956;51.428;6.682;2023-02-04T07:26:17;17.77;;;5.30;;
11797;SDS011;5956;51.428;6.682;2023-02-04T07:28:44;13.97;;;4.57;;
11797;SDS011;5956;51.428;6.682;2023-02-04T07:31:11;16.27;;;5.43;;
11797;SDS011;5956;51.428;6.682;2023-02-04T07:33:39;23.30;;;6.10;;
11797;SDS011;5956;51.428;6.682;2023-02-04T07:36:06;15.80;;;5.40;;
11797;SDS011;5956;51.428;6.682;2023-02-04T07:38:32;20.77;;;5.57;;
11797;SDS011;5956;51.428;6.682;2023-02-04T07:40:59;24.03;;;5.93;;
11797;SDS011;5956;51.428;6.682;2023-02-04T07:43:25;21.40;;;6.43;;
11797;SDS011;5956;51.428;6.682;2023-02-04T07:45:52;15.93;;;5.57;;
11797;SDS011;5956;51.428;6.682;2023-02-04T07:48:18;19.10;;;6.17;;
11797;SDS011;5956;51.428;6.682;2023-02-04T07:50:46;19.50;;;5.83;;
11797;SDS011;5956;51.428;6.682;2023-02-04T07:53:13;19.43;;;5.40;;
11797;SDS011;5956;51.428;6.682;2023-02-04T07:55:39;18.63;;;5.73;;
11797;SDS011;5956;51.428;6.682;2023-02-04T07:58:06;17.77;;;6.20;;
11797;SDS011;5956;51.428;6.682;2023-02-04T08:00:32;12.13;;;5.63;;
11797;SDS011;5956;51.428;6.682;2023-02-04T08:02:59;18.33;;;6.23;;
11797;SDS011;5956;51.428;6.682;2023-02-04T08:05:25;16.20;;;6.20;;
11797;SDS011;5956;51.428;6.682;2023-02-04T08:07:53;17.43;;;6.20;;
11797;SDS011;5956;51.428;6.682;2023-02-04T08:10:20;20.10;;;6.17;;
11797;SDS011;5956;51.428;6.682;2023-02-04T08:12:46;21.93;;;6.10;;
11797;SDS011;5956;51.428;6.682;2023-02-04T08:15:13;16.27;;;6.57;;
11797;SDS011;5956;51.428;6.682;2023-02-04T08:17:39;18.13;;;6.73;;
11797;SDS011;5956;51.428;6.682;2023-02-04T08:20:06;19.10;;;6.20;;
11797;SDS011;5956;51.428;6.682;2023-02-04T08:22:33;18.53;;;6.60;;
11797;SDS011;5956;51.428;6.682;2023-02-04T08:25:01;19.57;;;5.80;;
11797;SDS011;5956;51.428;6.682;2023-02-04T08:27:29;20.30;;;6.00;;
11797;SDS011;5956;51.428;6.682;2023-02-04T08:29:56;16.60;;;5.73;;
11797;SDS011;5956;51.428;6.682;2023-02-04T08:32:23;19.17;;;6.27;;
11797;SDS011;5956;51.428;6.682;2023-02-04T08:34:51;15.43;;;5.50;;
11797;SDS011;5956;51.428;6.682;2023-02-04T08:37:17;20.20;;;6.83;;
11797;SDS011;5956;51.428;6.682;2023-02-04T08:39:44;22.53;;;6.97;;
11797;SDS011;5956;51.428;6.682;2023-02-04T08:42:12;28.03;;;6.87;;
11797;SDS011;5956;51.428;6.682;2023-02-04T08:44:39;26.90;;;7.00;;
11797;SDS011;5956;51.428;6.682;2023-02-04T08:47:06;20.23;;;6.63;;
11797;SDS011;5956;51.428;6.682;2023-02-04T08:49:32;23.37;;;6.07;;
11797;SDS011;5956;51.428;6.682;2023-02-04T08:51:59;20.03;;;6.40;;
11797;SDS011;5956;51.428;6.682;2023-02-04T08:54:27;19.53;;;6.57;;
11797;SDS011;5956;51.428;6.682;2023-02-04T08:56:53;25.80;;;7.43;;
11797;SDS011;5956;51.428;6.682;2023-02-04T08:59:21;22.47;;;7.33;;
11797;SDS011;5956;51.428;6.682;2023-02-04T09:01:48;25.03;;;7.67;;
11797;SDS011;5956;51.428;6.682;2023-02-04T09:04:16;19.03;;;7.13;;
11797;SDS011;5956;51.428;6.682;2023-02-04T09:06:43;26.67;;;7.47;;
11797;SDS011;5956;51.428;6.682;2023-02-04T09:09:09;20.33;;;6.27;;
11797;SDS011;5956;51.428;6.682;2023-02-04T09:11:36;19.60;;;6.83;;
11797;SDS011;5956;51.428;6.682;2023-02-04T09:14:02;25.63;;;7.07;;
11797;SDS011;5956;51.428;6.682;2023-02-04T09:16:30;28.57;;;7.17;;
11797;SDS011;5956;51.428;6.682;2023-02-04T09:18:57;17.33;;;6.57;;
11797;SDS011;5956;51.428;6.682;2023-02-04T09:21:24;18.90;;;7.40;;
11797;SDS011;5956;51.428;6.682;2023-02-04T09:23:50;25.27;;;7.60;;
11797;SDS011;5956;51.428;6.682;2023-02-04T09:26:17;24.63;;;7.40;;
11797;SDS011;5956;51.428;6.682;2023-02-04T09:28:43;18.23;;;6.47;;
11797;SDS011;5956;51.428;6.682;2023-02-04T09:31:11;21.60;;;7.27;;
11797;SDS011;5956;51.428;6.682;2023-02-04T09:33:39;23.17;;;7.20;;
11797;SDS011;5956;51.428;6.682;2023-02-04T09:36:06;23.87;;;6.70;;
11797;SDS011;5956;51.428;6.682;2023-02-04T09:38:33;25.07;;;6.93;;
11797;SDS011;5956;51.428;6.682;2023-02-04T09:41:01;21.93;;;7.03;;
11797;SDS011;5956;51.428;6.682;2023-02-04T09:43:28;32.57;;;8.13;;
11797;SDS011;5956;51.428;6.682;2023-02-04T09:45:55;28.10;;;6.90;;
11797;SDS011;5956;51.428;6.682;2023-02-04T09:48:22;23.43;;;7.33;;
11797;SDS011;5956;51.428;6.682;2023-02-04T09:50:51;20.33;;;6.90;;
11797;SDS011;5956;51.428;6.682;2023-02-04T09:53:18;23.27;;;8.00;;
11797;SDS011;5956;51.428;6.682;2023-02-04T09:55:46;23.63;;;7.33;;
11797;SDS011;5956;51.428;6.682;2023-02-04T09:58:14;23.60;;;7.10;;
11797;SDS011;5956;51.428;6.682;2023-02-04T10:00:41;22.13;;;6.57;;
11797;SDS011;5956;51.428;6.682;2023-02-04T10:03:10;22.73;;;6.83;;
11797;SDS011;5956;51.428;6.682;2023-02-04T10:05:39;30.40;;;7.67;;
11797;SDS011;5956;51.428;6.682;2023-02-04T10:08:08;20.73;;;6.90;;
11797;SDS011;5956;51.428;6.682;2023-02-04T10:10:37;27.13;;;7.63;;
11797;SDS011;5956;51.428;6.682;2023-02-04T10:13:04;24.50;;;7.23;;
11797;SDS011;5956;51.428;6.682;2023-02-04T10:15:32;25.97;;;6.47;;
11797;SDS011;5956;51.428;6.682;2023-02-04T10:18:00;28.33;;;7.53;;
11797;SDS011;5956;51.428;6.682;2023-02-04T10:20:27;22.60;;;7.53;;
11797;SDS011;5956;51.428;6.682;2023-02-04T10:22:54;26.67;;;7.97;;
11797;SDS011;5956;51.428;6.682;2023-02-04T10:25:23;30.90;;;7.93;;
11797;SDS011;5956;51.428;6.682;2023-02-04T10:27:50;24.20;;;8.13;;
11797;SDS011;5956;51.428;6.682;2023-02-04T10:30:18;24.53;;;8.67;;
11797;SDS011;5956;51.428;6.682;2023-02-04T10:32:46;26.63;;;8.47;;
11797;SDS011;5956;51.428;6.682;2023-02-04T10:35:13;25.67;;;9.30;;
11797;SDS011;5956;51.428;6.682;2023-02-04T10:37:40;28.53;;;8.90;;
11797;SDS011;5956;51.428;6.682;2023-02-04T10:43:05;23.77;;;9.33;;
11797;SDS011;5956;51.428;6.682;2023-02-04T10:45:33;34.93;;;11.47;;
11797;SDS011;5956;51.428;6.682;2023-02-04T10:48:00;31.83;;;10.50;;
11797;SDS011;5956;51.428;6.682;2023-02-04T10:50:27;27.80;;;9.30;;
11797;SDS011;5956;51.428;6.682;2023-02-04T10:52:55;25.80;;;9.70;;
11797;SDS011;5956;51.428;6.682;2023-02-04T10:55:42;26.00;;;10.03;;
11797;SDS011;5956;51.428;6.682;2023-02-04T10:58:11;31.97;;;11.07;;
11797;SDS011;5956;51.428;6.682;2023-02-04T11:00:39;24.47;;;10.10;;
11797;SDS011;5956;51.428;6.682;2023-02-04T11:03:08;27.23;;;11.73;;
11797;SDS011;5956;51.428;6.682;2023-02-04T11:05:36;32.17;;;10.40;;
11797;SDS011;5956;51.428;6.682;2023-02-04T11:08:03;34.97;;;13.80;;
11797;SDS011;5956;51.428;6.682;2023-02-04T11:10:42;28.53;;;14.63;;
11797;SDS011;5956;51.428;6.682;2023-02-04T11:13:20;38.73;;;13.20;;
11797;SDS011;5956;51.428;6.682;2023-02-04T11:15:47;28.07;;;11.23;;
11797;SDS011;5956;51.428;6.682;2023-02-04T11:18:24;28.90;;;10.03;;
11797;SDS011;5956;51.428;6.682;2023-02-04T11:20:52;25.40;;;10.07;;
11797;SDS011;5956;51.428;6.682;2023-02-04T11:26:02;30.10;;;9.90;;
11797;SDS011;5956;51.428;6.682;2023-02-04T11:28:37;24.30;;;7.93;;
11797;SDS011;5956;51.428;6.682;2023-02-04T11:31:11;28.73;;;9.77;;
11797;SDS011;5956;51.428;6.682;2023-02-04T11:33:39;27.77;;;8.03;;
11797;SDS011;5956;51.428;6.682;2023-02-04T11:36:07;25.63;;;8.77;;
11797;SDS011;5956;51.428;6.682;2023-02-04T11:38:35;23.40;;;8.93;;
11797;SDS011;5956;51.428;6.682;2023-02-04T11:41:03;20.90;;;7.97;;
11797;SDS011;5956;51.428;6.682;2023-02-04T11:43:33;27.47;;;7.63;;
11797;SDS011;5956;51.428;6.682;2023-02-04T11:46:02;22.10;;;7.60;;
11797;SDS011;5956;51.428;6.682;2023-02-04T11:48:30;27.03;;;9.10;;
11797;SDS011;5956;51.428;6.682;2023-02-04T11:50:57;26.57;;;8.53;;
11797;SDS011;5956;51.428;6.682;2023-02-04T11:53:27;26.77;;;8.60;;
11797;SDS011;5956;51.428;6.682;2023-02-04T11:55:54;26.20;;;9.40;;
11797;SDS011;5956;51.428;6.682;2023-02-04T11:58:21;24.07;;;8.27;;
11797;SDS011;5956;51.428;6.682;2023-02-04T12:00:51;27.23;;;8.10;;
11797;SDS011;5956;51.428;6.682;2023-02-04T12:03:20;25.30;;;8.00;;
11797;SDS011;5956;51.428;6.682;2023-02-04T12:05:47;24.23;;;7.80;;
11797;SDS011;5956;51.428;6.682;2023-02-04T12:08:24;22.40;;;8.73;;
11797;SDS011;5956;51.428;6.682;2023-02-04T12:10:57;21.13;;;7.33;;
11797;SDS011;5956;51.428;6.682;2023-02-04T12:13:24;20.33;;;6.90;;
11797;SDS011;5956;51.428;6.682;2023-02-04T12:15:56;19.00;;;7.37;;
11797;SDS011;5956;51.428;6.682;2023-02-04T12:18:23;19.67;;;7.00;;
11797;SDS011;5956;51.428;6.682;2023-02-04T12:20:52;23.20;;;6.97;;
11797;SDS011;5956;51.428;6.682;2023-02-04T12:23:19;22.80;;;7.40;;
11797;SDS011;5956;51.428;6.682;2023-02-04T12:25:45;20.57;;;7.43;;
11797;SDS011;5956;51.428;6.682;2023-02-04T12:28:12;24.00;;;7.80;;
11797;SDS011;5956;51.428;6.682;2023-02-04T12:30:38;18.33;;;5.37;;
11797;SDS011;5956;51.428;6.682;2023-02-04T12:33:06;18.47;;;5.97;;
11797;SDS011;5956;51.428;6.682;2023-02-04T12:35:33;16.03;;;5.63;;
11797;SDS011;5956;51.428;6.682;2023-02-04T12:38:00;20.80;;;6.40;;
11797;SDS011;5956;51.428;6.682;2023-02-04T12:40:27;22.13;;;6.67;;
11797;SDS011;5956;51.428;6.682;2023-02-04T12:42:54;21.03;;;6.10;;
11797;SDS011;5956;51.428;6.682;2023-02-04T12:45:20;19.57;;;5.97;;
11797;SDS011;5956;51.428;6.682;2023-02-04T12:47:47;22.30;;;5.43;;
11797;SDS011;5956;51.428;6.682;2023-02-04T12:50:16;18.60;;;6.33;;
11797;SDS011;5956;51.428;6.682;2023-02-04T12:52:46;18.57;;;5.97;;
11797;SDS011;5956;51.428;6.682;2023-02-04T12:55:13;15.17;;;4.43;;
11797;SDS011;5956;51.428;6.682;2023-02-04T12:57:40;15.93;;;5.10;;
11797;SDS011;5956;51.428;6.682;2023-02-04T13:00:06;16.80;;;5.88;;
11797;SDS011;5956;51.428;6.682;2023-02-04T13:02:33;18.95;;;5.70;;
11797;SDS011;5956;51.428;6.682;2023-02-04T13:05:00;16.95;;;6.20;;
11797;SDS011;5956;51.428;6.682;2023-02-04T13:07:28;18.40;;;5.82;;
11797;SDS011;5956;51.428;6.682;2023-02-04T13:09:54;19.65;;;5.85;;
11797;SDS011;5956;51.428;6.682;2023-02-04T13:12:22;14.15;;;4.25;;
11797;SDS011;5956;51.428;6.682;2023-02-04T13:14:48;12.57;;;5.13;;
11797;SDS011;5956;51.428;6.682;2023-02-04T13:17:15;15.75;;;5.15;;
11797;SDS011;5956;51.428;6.682;2023-02-04T13:19:42;13.52;;;5.03;;
11797;SDS011;5956;51.428;6.682;2023-02-04T13:22:08;19.65;;;6.45;;
11797;SDS011;5956;51.428;6.682;2023-02-04T13:24:37;16.90;;;6.15;;
11797;SDS011;5956;51.428;6.682;2023-02-04T13:27:03;19.50;;;6.78;;
11797;SDS011;5956;51.428;6.682;2023-02-04T13:29:30;19.15;;;6.00;;
11797;SDS011;5956;51.428;6.682;2023-02-04T13:31:56;20.13;;;6.43;;
11797;SDS011;5956;51.428;6.682;2023-02-04T13:34:23;16.13;;;7.05;;
11797;SDS011;5956;51.428;6.682;2023-02-04T13:36:49;17.17;;;5.82;;
11797;SDS011;5956;51.428;6.682;2023-02-04T13:39:16;18.05;;;5.75;;
11797;SDS011;5956;51.428;6.682;2023-02-04T13:41:44;17.80;;;5.70;;
11797;SDS011;5956;51.428;6.682;2023-02-04T13:44:12;16.05;;;5.70;;
11797;SDS011;5956;51.428;6.682;2023-02-04T13:46:39;16.35;;;5.75;;
11797;SDS011;5956;51.428;6.682;2023-02-04T13:49:05;19.67;;;6.23;;
11797;SDS011;5956;51.428;6.682;2023-02-04T13:51:32;19.23;;;6.43;;
11797;SDS011;5956;51.428;6.682;2023-02-04T13:53:59;28.23;;;6.27;;
11797;SDS011;5956;51.428;6.682;2023-02-04T13:56:25;23.03;;;6.40;;
11797;SDS011;5956;51.428;6.682;2023-02-04T13:58:53;18.13;;;5.33;;
11797;SDS011;5956;51.428;6.682;2023-02-04T14:01:20;21.00;;;6.53;;
11797;SDS011;5956;51.428;6.682;2023-02-04T14:03:46;22.47;;;5.90;;
11797;SDS011;5956;51.428;6.682;2023-02-04T14:06:13;21.10;;;5.90;;
11797;SDS011;5956;51.428;6.682;2023-02-04T14:08:44;21.67;;;5.97;;
11797;SDS011;5956;51.428;6.682;2023-02-04T14:11:11;17.40;;;5.70;;
11797;SDS011;5956;51.428;6.682;2023-02-04T14:13:37;20.80;;;6.83;;
11797;SDS011;5956;51.428;6.682;2023-02-04T14:16:05;18.97;;;5.53;;
11797;SDS011;5956;51.428;6.682;2023-02-04T14:18:33;19.70;;;5.93;;
11797;SDS011;5956;51.428;6.682;2023-02-04T14:21:00;18.47;;;6.30;;
11797;SDS011;5956;51.428;6.682;2023-02-04T14:23:26;19.47;;;5.90;;
11797;SDS011;5956;51.428;6.682;2023-02-04T14:25:53;23.13;;;6.20;;
11797;SDS011;5956;51.428;6.682;2023-02-04T14:28:20;20.73;;;6.40;;
11797;SDS011;5956;51.428;6.682;2023-02-04T14:30:46;21.57;;;6.00;;
11797;SDS011;5956;51.428;6.682;2023-02-04T14:33:14;20.87;;;6.10;;
11797;SDS011;5956;51.428;6.682;2023-02-04T14:35:42;17.77;;;5.77;;
11797;SDS011;5956;51.428;6.682;2023-02-04T14:38:09;16.27;;;5.37;;
11797;SDS011;5956;51.428;6.682;2023-02-04T14:40:37;23.77;;;6.70;;
11797;SDS011;5956;51.428;6.682;2023-02-04T14:43:04;16.13;;;5.00;;
11797;SDS011;5956;51.428;6.682;2023-02-04T14:45:31;18.10;;;6.13;;
11797;SDS011;5956;51.428;6.682;2023-02-04T14:47:57;18.33;;;5.87;;
11797;SDS011;5956;51.428;6.682;2023-02-04T14:50:26;15.03;;;5.37;;
11797;SDS011;5956;51.428;6.682;2023-02-04T14:52:54;20.20;;;5.43;;